sensor_id;sensor_type;location;lat;lon;timestamp;P1;durP1;ratioP1;P2;durP2;ratioP2
69188;SDS011;56302;52.322;5.926;2022-10-17T00:00:45;11.77;;;6.83;;
69188;SDS011;56302;52.322;5.926;2022-10-17T00:03:12;14.95;;;7.72;;
69188;SDS011;56302;52.322;5.926;2022-10-17T00:05:38;11.23;;;7.53;;
69188;SDS011;56302;52.322;5.926;2022-10-17T00:08:10;12.13;;;6.82;;
69188;SDS011;56302;52.322;5.926;2022-10-17T00:10:36;9.63;;;6.60;;
69188;SDS011;56302;52.322;5.926;2022-10-17T00:13:02;11.63;;;6.93;;
69188;SDS011;56302;52.322;5.926;2022-10-17T00:15:28;12.13;;;6.80;;
69188;SDS011;56302;52.322;5.926;2022-10-17T00:17:53;12.05;;;6.40;;
69188;SDS011;56302;52.322;5.926;2022-10-17T00:20:19;9.23;;;6.47;;
69188;SDS011;56302;52.322;5.926;2022-10-17T00:22:44;13.43;;;6.60;;
69188;SDS011;56302;52.322;5.926;2022-10-17T00:25:10;16.27;;;7.65;;
69188;SDS011;56302;52.322;5.926;2022-10-17T00:27:37;12.70;;;7.83;;
69188;SDS011;56302;52.322;5.926;2022-10-17T00:30:04;11.13;;;6.53;;
69188;SDS011;56302;52.322;5.926;2022-10-17T00:32:31;15.82;;;7.38;;
69188;SDS011;56302;52.322;5.926;2022-10-17T00:34:57;18.43;;;7.50;;
69188;SDS011;56302;52.322;5.926;2022-10-17T00:37:23;10.85;;;6.78;;
69188;SDS011;56302;52.322;5.926;2022-10-17T00:39:48;10.97;;;6.77;;
69188;SDS011;56302;52.322;5.926;2022-10-17T00:42:14;14.60;;;6.80;;
69188;SDS011;56302;52.322;5.926;2022-10-17T00:47:07;11.97;;;6.67;;
69188;SDS011;56302;52.322;5.926;2022-10-17T00:49:36;10.18;;;6.40;;
69188;SDS011;56302;52.322;5.926;2022-10-17T00:52:10;10.48;;;6.40;;
69188;SDS011;56302;52.322;5.926;2022-10-17T00:54:40;9.73;;;6.30;;
69188;SDS011;56302;52.322;5.926;2022-10-17T00:57:10;12.75;;;7.20;;
69188;SDS011;56302;52.322;5.926;2022-10-17T00:59:38;11.17;;;6.37;;
69188;SDS011;56302;52.322;5.926;2022-10-17T01:02:06;9.13;;;5.88;;
69188;SDS011;56302;52.322;5.926;2022-10-17T01:04:35;11.18;;;6.22;;
69188;SDS011;56302;52.322;5.926;2022-10-17T01:07:02;9.85;;;5.90;;
69188;SDS011;56302;52.322;5.926;2022-10-17T01:09:28;12.87;;;6.63;;
69188;SDS011;56302;52.322;5.926;2022-10-17T01:11:55;9.35;;;6.03;;
69188;SDS011;56302;52.322;5.926;2022-10-17T01:14:32;12.45;;;6.38;;
69188;SDS011;56302;52.322;5.926;2022-10-17T01:22:45;12.23;;;6.90;;
69188;SDS011;56302;52.322;5.926;2022-10-17T01:36:53;16.88;;;8.60;;
69188;SDS011;56302;52.322;5.926;2022-10-17T01:39:15;11.98;;;7.18;;
69188;SDS011;56302;52.322;5.926;2022-10-17T01:44:35;12.18;;;6.70;;
69188;SDS011;56302;52.322;5.926;2022-10-17T01:47:09;12.90;;;6.63;;
69188;SDS011;56302;52.322;5.926;2022-10-17T01:49:37;12.75;;;6.45;;
69188;SDS011;56302;52.322;5.926;2022-10-17T01:52:07;8.35;;;6.10;;
69188;SDS011;56302;52.322;5.926;2022-10-17T01:54:39;11.10;;;6.10;;
69188;SDS011;56302;52.322;5.926;2022-10-17T01:57:10;9.15;;;6.22;;
69188;SDS011;56302;52.322;5.926;2022-10-17T01:59:43;11.52;;;6.78;;
69188;SDS011;56302;52.322;5.926;2022-10-17T02:02:11;12.23;;;6.18;;
69188;SDS011;56302;52.322;5.926;2022-10-17T02:04:40;11.32;;;6.95;;
69188;SDS011;56302;52.322;5.926;2022-10-17T02:07:07;10.57;;;6.93;;
69188;SDS011;56302;52.322;5.926;2022-10-17T02:09:34;8.95;;;6.43;;
69188;SDS011;56302;52.322;5.926;2022-10-17T02:19:45;9.93;;;6.37;;
69188;SDS011;56302;52.322;5.926;2022-10-17T02:22:24;11.50;;;6.85;;
69188;SDS011;56302;52.322;5.926;2022-10-17T02:33:01;13.53;;;7.13;;
69188;SDS011;56302;52.322;5.926;2022-10-17T02:35:41;12.43;;;6.63;;
69188;SDS011;56302;52.322;5.926;2022-10-17T02:38:10;10.93;;;6.88;;
69188;SDS011;56302;52.322;5.926;2022-10-17T02:40:38;17.27;;;7.47;;
69188;SDS011;56302;52.322;5.926;2022-10-17T02:43:05;11.80;;;7.20;;
69188;SDS011;56302;52.322;5.926;2022-10-17T02:45:31;20.37;;;6.70;;
69188;SDS011;56302;52.322;5.926;2022-10-17T02:48:11;14.18;;;7.03;;
69188;SDS011;56302;52.322;5.926;2022-10-17T02:53:11;10.57;;;6.80;;
69188;SDS011;56302;52.322;5.926;2022-10-17T02:55:50;12.57;;;7.35;;
69188;SDS011;56302;52.322;5.926;2022-10-17T02:58:22;12.73;;;8.35;;
69188;SDS011;56302;52.322;5.926;2022-10-17T03:00:51;15.68;;;8.77;;
69188;SDS011;56302;52.322;5.926;2022-10-17T03:03:22;18.77;;;8.48;;
69188;SDS011;56302;52.322;5.926;2022-10-17T03:05:49;16.48;;;9.65;;
69188;SDS011;56302;52.322;5.926;2022-10-17T03:08:16;16.80;;;8.60;;
69188;SDS011;56302;52.322;5.926;2022-10-17T03:13:35;17.35;;;9.93;;
69188;SDS011;56302;52.322;5.926;2022-10-17T03:16:00;18.77;;;8.73;;
69188;SDS011;56302;52.322;5.926;2022-10-17T03:18:26;18.80;;;10.13;;
69188;SDS011;56302;52.322;5.926;2022-10-17T03:20:51;20.02;;;10.93;;
69188;SDS011;56302;52.322;5.926;2022-10-17T03:23:17;18.37;;;10.20;;
69188;SDS011;56302;52.322;5.926;2022-10-17T03:25:42;19.00;;;11.00;;
69188;SDS011;56302;52.322;5.926;2022-10-17T03:28:08;18.92;;;10.13;;
69188;SDS011;56302;52.322;5.926;2022-10-17T03:30:36;20.58;;;11.63;;
69188;SDS011;56302;52.322;5.926;2022-10-17T03:33:02;23.45;;;13.18;;
69188;SDS011;56302;52.322;5.926;2022-10-17T03:35:28;23.83;;;13.97;;
69188;SDS011;56302;52.322;5.926;2022-10-17T03:37:56;21.90;;;12.30;;
69188;SDS011;56302;52.322;5.926;2022-10-17T03:40:22;19.00;;;11.50;;
69188;SDS011;56302;52.322;5.926;2022-10-17T03:42:47;21.75;;;12.05;;
69188;SDS011;56302;52.322;5.926;2022-10-17T03:45:13;22.83;;;11.83;;
69188;SDS011;56302;52.322;5.926;2022-10-17T03:47:38;25.93;;;13.50;;
69188;SDS011;56302;52.322;5.926;2022-10-17T03:50:04;29.17;;;15.27;;
69188;SDS011;56302;52.322;5.926;2022-10-17T03:52:30;28.52;;;15.00;;
69188;SDS011;56302;52.322;5.926;2022-10-17T03:54:55;24.13;;;13.60;;
69188;SDS011;56302;52.322;5.926;2022-10-17T03:57:21;21.27;;;12.83;;
69188;SDS011;56302;52.322;5.926;2022-10-17T03:59:48;22.00;;;12.17;;
69188;SDS011;56302;52.322;5.926;2022-10-17T04:02:15;24.35;;;12.77;;
69188;SDS011;56302;52.322;5.926;2022-10-17T04:04:40;21.37;;;12.33;;
69188;SDS011;56302;52.322;5.926;2022-10-17T04:07:06;23.65;;;12.50;;
69188;SDS011;56302;52.322;5.926;2022-10-17T04:09:31;20.93;;;11.50;;
69188;SDS011;56302;52.322;5.926;2022-10-17T04:11:57;23.70;;;12.10;;
69188;SDS011;56302;52.322;5.926;2022-10-17T04:14:23;17.43;;;11.57;;
69188;SDS011;56302;52.322;5.926;2022-10-17T04:16:48;25.93;;;12.97;;
69188;SDS011;56302;52.322;5.926;2022-10-17T04:19:14;22.83;;;12.48;;
69188;SDS011;56302;52.322;5.926;2022-10-17T04:21:39;19.70;;;12.20;;
69188;SDS011;56302;52.322;5.926;2022-10-17T04:24:05;22.83;;;12.27;;
69188;SDS011;56302;52.322;5.926;2022-10-17T04:26:34;18.85;;;12.13;;
69188;SDS011;56302;52.322;5.926;2022-10-17T04:29:06;33.03;;;12.77;;
69188;SDS011;56302;52.322;5.926;2022-10-17T04:31:34;17.83;;;11.23;;
69188;SDS011;56302;52.322;5.926;2022-10-17T04:34:00;23.63;;;12.40;;
69188;SDS011;56302;52.322;5.926;2022-10-17T04:36:25;23.65;;;12.43;;
69188;SDS011;56302;52.322;5.926;2022-10-17T04:38:51;21.03;;;12.17;;
69188;SDS011;56302;52.322;5.926;2022-10-17T04:41:17;19.58;;;10.88;;
69188;SDS011;56302;52.322;5.926;2022-10-17T04:43:43;19.25;;;11.65;;
69188;SDS011;56302;52.322;5.926;2022-10-17T04:46:09;18.48;;;11.63;;
69188;SDS011;56302;52.322;5.926;2022-10-17T04:48:37;21.50;;;12.27;;
69188;SDS011;56302;52.322;5.926;2022-10-17T04:51:05;17.33;;;11.03;;
69188;SDS011;56302;52.322;5.926;2022-10-17T04:53:33;19.17;;;10.30;;
69188;SDS011;56302;52.322;5.926;2022-10-17T04:55:59;19.52;;;10.88;;
69188;SDS011;56302;52.322;5.926;2022-10-17T04:58:27;16.38;;;9.25;;
69188;SDS011;56302;52.322;5.926;2022-10-17T05:00:53;21.57;;;12.17;;
69188;SDS011;56302;52.322;5.926;2022-10-17T05:03:19;20.67;;;12.25;;
69188;SDS011;56302;52.322;5.926;2022-10-17T05:05:44;16.97;;;11.10;;
69188;SDS011;56302;52.322;5.926;2022-10-17T05:08:10;20.70;;;12.30;;
69188;SDS011;56302;52.322;5.926;2022-10-17T05:10:36;23.00;;;12.20;;
69188;SDS011;56302;52.322;5.926;2022-10-17T05:13:06;21.17;;;12.13;;
69188;SDS011;56302;52.322;5.926;2022-10-17T05:15:32;18.17;;;10.90;;
69188;SDS011;56302;52.322;5.926;2022-10-17T05:17:58;21.27;;;11.00;;
69188;SDS011;56302;52.322;5.926;2022-10-17T05:20:24;21.45;;;11.75;;
69188;SDS011;56302;52.322;5.926;2022-10-17T05:22:50;24.00;;;11.80;;
69188;SDS011;56302;52.322;5.926;2022-10-17T05:25:16;20.08;;;11.05;;
69188;SDS011;56302;52.322;5.926;2022-10-17T05:27:41;23.90;;;11.43;;
69188;SDS011;56302;52.322;5.926;2022-10-17T05:30:07;26.90;;;11.23;;
69188;SDS011;56302;52.322;5.926;2022-10-17T05:32:33;17.02;;;10.20;;
69188;SDS011;56302;52.322;5.926;2022-10-17T05:34:59;18.40;;;10.35;;
69188;SDS011;56302;52.322;5.926;2022-10-17T05:37:24;20.43;;;10.27;;
69188;SDS011;56302;52.322;5.926;2022-10-17T05:39:50;19.70;;;10.40;;
69188;SDS011;56302;52.322;5.926;2022-10-17T05:42:15;20.57;;;11.53;;
69188;SDS011;56302;52.322;5.926;2022-10-17T05:44:41;19.98;;;9.65;;
69188;SDS011;56302;52.322;5.926;2022-10-17T05:47:07;17.93;;;10.40;;
69188;SDS011;56302;52.322;5.926;2022-10-17T05:49:32;19.05;;;10.45;;
69188;SDS011;56302;52.322;5.926;2022-10-17T05:51:58;19.75;;;9.90;;
69188;SDS011;56302;52.322;5.926;2022-10-17T05:54:24;22.20;;;10.70;;
69188;SDS011;56302;52.322;5.926;2022-10-17T05:56:53;17.30;;;9.13;;
69188;SDS011;56302;52.322;5.926;2022-10-17T05:59:19;18.63;;;9.65;;
69188;SDS011;56302;52.322;5.926;2022-10-17T06:01:45;21.38;;;10.40;;
69188;SDS011;56302;52.322;5.926;2022-10-17T06:04:11;20.92;;;10.30;;
69188;SDS011;56302;52.322;5.926;2022-10-17T06:06:37;23.40;;;10.47;;
69188;SDS011;56302;52.322;5.926;2022-10-17T06:09:04;20.15;;;10.05;;
69188;SDS011;56302;52.322;5.926;2022-10-17T06:11:30;21.90;;;9.75;;
69188;SDS011;56302;52.322;5.926;2022-10-17T06:13:55;19.63;;;10.40;;
69188;SDS011;56302;52.322;5.926;2022-10-17T06:16:21;17.67;;;10.25;;
69188;SDS011;56302;52.322;5.926;2022-10-17T06:18:47;19.73;;;10.33;;
69188;SDS011;56302;52.322;5.926;2022-10-17T06:21:14;21.98;;;10.45;;
69188;SDS011;56302;52.322;5.926;2022-10-17T06:23:41;23.03;;;9.97;;
69188;SDS011;56302;52.322;5.926;2022-10-17T06:26:07;19.02;;;9.65;;
69188;SDS011;56302;52.322;5.926;2022-10-17T06:28:33;19.52;;;9.48;;
69188;SDS011;56302;52.322;5.926;2022-10-17T06:31:03;23.15;;;9.48;;
69188;SDS011;56302;52.322;5.926;2022-10-17T06:33:33;18.98;;;9.65;;
69188;SDS011;56302;52.322;5.926;2022-10-17T06:35:59;18.13;;;9.15;;
69188;SDS011;56302;52.322;5.926;2022-10-17T06:38:25;18.23;;;8.80;;
69188;SDS011;56302;52.322;5.926;2022-10-17T06:40:50;15.00;;;8.57;;
69188;SDS011;56302;52.322;5.926;2022-10-17T06:43:17;17.95;;;8.43;;
69188;SDS011;56302;52.322;5.926;2022-10-17T06:45:46;14.80;;;8.50;;
69188;SDS011;56302;52.322;5.926;2022-10-17T06:48:12;19.37;;;8.50;;
69188;SDS011;56302;52.322;5.926;2022-10-17T06:50:37;19.60;;;8.82;;
69188;SDS011;56302;52.322;5.926;2022-10-17T06:53:03;16.13;;;8.03;;
69188;SDS011;56302;52.322;5.926;2022-10-17T06:55:30;13.70;;;8.48;;
69188;SDS011;56302;52.322;5.926;2022-10-17T06:57:56;16.90;;;8.85;;
69188;SDS011;56302;52.322;5.926;2022-10-17T07:00:22;19.40;;;9.70;;
69188;SDS011;56302;52.322;5.926;2022-10-17T07:02:47;18.92;;;8.80;;
69188;SDS011;56302;52.322;5.926;2022-10-17T07:05:13;13.80;;;8.30;;
69188;SDS011;56302;52.322;5.926;2022-10-17T07:07:39;15.83;;;7.90;;
69188;SDS011;56302;52.322;5.926;2022-10-17T07:10:05;20.75;;;8.50;;
69188;SDS011;56302;52.322;5.926;2022-10-17T07:12:34;14.30;;;8.52;;
69188;SDS011;56302;52.322;5.926;2022-10-17T07:15:00;13.47;;;7.50;;
69188;SDS011;56302;52.322;5.926;2022-10-17T07:17:28;15.20;;;8.35;;
69188;SDS011;56302;52.322;5.926;2022-10-17T07:19:54;14.38;;;7.60;;
69188;SDS011;56302;52.322;5.926;2022-10-17T07:22:19;17.73;;;8.53;;
69188;SDS011;56302;52.322;5.926;2022-10-17T07:24:45;14.35;;;7.35;;
69188;SDS011;56302;52.322;5.926;2022-10-17T07:27:11;15.07;;;8.30;;
69188;SDS011;56302;52.322;5.926;2022-10-17T07:29:37;19.08;;;7.80;;
69188;SDS011;56302;52.322;5.926;2022-10-17T07:32:03;17.07;;;7.53;;
69188;SDS011;56302;52.322;5.926;2022-10-17T07:34:32;11.50;;;7.07;;
69188;SDS011;56302;52.322;5.926;2022-10-17T07:36:58;14.18;;;7.70;;
69188;SDS011;56302;52.322;5.926;2022-10-17T07:39:24;15.03;;;6.97;;
69188;SDS011;56302;52.322;5.926;2022-10-17T07:41:49;11.55;;;6.63;;
69188;SDS011;56302;52.322;5.926;2022-10-17T07:44:15;11.88;;;6.82;;
69188;SDS011;56302;52.322;5.926;2022-10-17T07:46:41;17.17;;;6.83;;
69188;SDS011;56302;52.322;5.926;2022-10-17T07:49:06;14.73;;;6.75;;
69188;SDS011;56302;52.322;5.926;2022-10-17T07:51:32;11.50;;;6.40;;
69188;SDS011;56302;52.322;5.926;2022-10-17T07:53:57;11.65;;;6.90;;
69188;SDS011;56302;52.322;5.926;2022-10-17T07:56:23;14.10;;;6.77;;
69188;SDS011;56302;52.322;5.926;2022-10-17T07:58:49;13.57;;;6.83;;
69188;SDS011;56302;52.322;5.926;2022-10-17T08:01:16;13.75;;;6.43;;
69188;SDS011;56302;52.322;5.926;2022-10-17T08:03:44;12.65;;;6.25;;
69188;SDS011;56302;52.322;5.926;2022-10-17T08:06:12;11.40;;;6.28;;
69188;SDS011;56302;52.322;5.926;2022-10-17T08:08:38;17.98;;;6.70;;
69188;SDS011;56302;52.322;5.926;2022-10-17T08:11:07;10.50;;;5.57;;
69188;SDS011;56302;52.322;5.926;2022-10-17T08:13:34;12.57;;;6.07;;
69188;SDS011;56302;52.322;5.926;2022-10-17T08:16:10;13.13;;;6.50;;
69188;SDS011;56302;52.322;5.926;2022-10-17T08:18:37;13.00;;;5.93;;
69188;SDS011;56302;52.322;5.926;2022-10-17T08:21:05;11.20;;;5.47;;
69188;SDS011;56302;52.322;5.926;2022-10-17T08:23:32;12.05;;;5.85;;
69188;SDS011;56302;52.322;5.926;2022-10-17T08:25:58;14.95;;;5.85;;
69188;SDS011;56302;52.322;5.926;2022-10-17T08:28:24;12.10;;;6.00;;
69188;SDS011;56302;52.322;5.926;2022-10-17T08:30:50;13.68;;;5.53;;
69188;SDS011;56302;52.322;5.926;2022-10-17T08:33:15;8.87;;;5.13;;
69188;SDS011;56302;52.322;5.926;2022-10-17T08:35:41;15.82;;;5.82;;
69188;SDS011;56302;52.322;5.926;2022-10-17T08:38:06;10.57;;;5.63;;
69188;SDS011;56302;52.322;5.926;2022-10-17T08:40:32;11.73;;;5.93;;
69188;SDS011;56302;52.322;5.926;2022-10-17T08:43:09;11.88;;;5.93;;
69188;SDS011;56302;52.322;5.926;2022-10-17T08:46:12;12.50;;;6.40;;
69188;SDS011;56302;52.322;5.926;2022-10-17T08:48:33;13.10;;;7.13;;
69188;SDS011;56302;52.322;5.926;2022-10-17T08:56:47;16.17;;;6.95;;
69188;SDS011;56302;52.322;5.926;2022-10-17T08:59:33;12.73;;;8.02;;
69188;SDS011;56302;52.322;5.926;2022-10-17T09:02:02;18.35;;;7.93;;
69188;SDS011;56302;52.322;5.926;2022-10-17T09:07:34;14.90;;;7.97;;
69188;SDS011;56302;52.322;5.926;2022-10-17T09:10:07;13.68;;;8.82;;
69188;SDS011;56302;52.322;5.926;2022-10-17T09:13:18;15.57;;;8.75;;
69188;SDS011;56302;52.322;5.926;2022-10-17T09:15:56;14.65;;;8.15;;
69188;SDS011;56302;52.322;5.926;2022-10-17T09:18:36;19.08;;;8.55;;
69188;SDS011;56302;52.322;5.926;2022-10-17T09:21:24;15.75;;;8.80;;
69188;SDS011;56302;52.322;5.926;2022-10-17T09:23:59;19.65;;;8.65;;
69188;SDS011;56302;52.322;5.926;2022-10-17T09:26:28;14.98;;;9.02;;
69188;SDS011;56302;52.322;5.926;2022-10-17T09:28:55;15.25;;;9.02;;
69188;SDS011;56302;52.322;5.926;2022-10-17T09:31:39;17.95;;;9.93;;
69188;SDS011;56302;52.322;5.926;2022-10-17T09:34:10;13.70;;;8.77;;
69188;SDS011;56302;52.322;5.926;2022-10-17T09:36:37;20.43;;;8.90;;
69188;SDS011;56302;52.322;5.926;2022-10-17T09:39:15;18.83;;;9.27;;
69188;SDS011;56302;52.322;5.926;2022-10-17T09:41:47;16.92;;;9.30;;
69188;SDS011;56302;52.322;5.926;2022-10-17T09:49:29;20.85;;;8.82;;
69188;SDS011;56302;52.322;5.926;2022-10-17T09:51:57;12.52;;;7.95;;
69188;SDS011;56302;52.322;5.926;2022-10-17T09:54:25;14.02;;;8.40;;
69188;SDS011;56302;52.322;5.926;2022-10-17T09:57:04;15.65;;;9.07;;
69188;SDS011;56302;52.322;5.926;2022-10-17T09:59:38;16.17;;;8.63;;
69188;SDS011;56302;52.322;5.926;2022-10-17T10:07:17;17.25;;;8.65;;
69188;SDS011;56302;52.322;5.926;2022-10-17T10:09:45;15.35;;;8.13;;
69188;SDS011;56302;52.322;5.926;2022-10-17T10:12:26;14.45;;;7.82;;
69188;SDS011;56302;52.322;5.926;2022-10-17T10:14:53;13.27;;;7.60;;
69188;SDS011;56302;52.322;5.926;2022-10-17T10:17:39;16.33;;;7.97;;
69188;SDS011;56302;52.322;5.926;2022-10-17T10:20:31;14.70;;;8.15;;
69188;SDS011;56302;52.322;5.926;2022-10-17T10:23:03;12.48;;;8.07;;
69188;SDS011;56302;52.322;5.926;2022-10-17T10:25:38;18.20;;;8.48;;
69188;SDS011;56302;52.322;5.926;2022-10-17T10:28:16;15.95;;;8.70;;
69188;SDS011;56302;52.322;5.926;2022-10-17T10:30:44;13.38;;;7.93;;
69188;SDS011;56302;52.322;5.926;2022-10-17T10:33:13;12.40;;;8.00;;
69188;SDS011;56302;52.322;5.926;2022-10-17T10:35:39;19.73;;;8.83;;
69188;SDS011;56302;52.322;5.926;2022-10-17T10:38:12;14.00;;;7.47;;
69188;SDS011;56302;52.322;5.926;2022-10-17T10:40:44;13.00;;;7.93;;
69188;SDS011;56302;52.322;5.926;2022-10-17T10:43:19;13.73;;;7.97;;
69188;SDS011;56302;52.322;5.926;2022-10-17T10:45:47;14.63;;;7.60;;
69188;SDS011;56302;52.322;5.926;2022-10-17T10:48:18;14.52;;;7.80;;
69188;SDS011;56302;52.322;5.926;2022-10-17T10:50:59;12.77;;;7.23;;
69188;SDS011;56302;52.322;5.926;2022-10-17T10:53:44;12.82;;;6.28;;
69188;SDS011;56302;52.322;5.926;2022-10-17T10:56:20;11.55;;;6.20;;
69188;SDS011;56302;52.322;5.926;2022-10-17T11:04:27;11.53;;;4.87;;
69188;SDS011;56302;52.322;5.926;2022-10-17T11:07:07;11.27;;;5.00;;
69188;SDS011;56302;52.322;5.926;2022-10-17T11:09:46;7.93;;;4.88;;
69188;SDS011;56302;52.322;5.926;2022-10-17T11:12:28;8.80;;;4.20;;
69188;SDS011;56302;52.322;5.926;2022-10-17T11:20:29;9.65;;;4.32;;
69188;SDS011;56302;52.322;5.926;2022-10-17T11:23:16;7.78;;;4.72;;
69188;SDS011;56302;52.322;5.926;2022-10-17T11:25:48;9.07;;;4.50;;
69188;SDS011;56302;52.322;5.926;2022-10-17T11:28:17;7.82;;;3.95;;
69188;SDS011;56302;52.322;5.926;2022-10-17T11:30:45;8.93;;;3.53;;
69188;SDS011;56302;52.322;5.926;2022-10-17T11:33:17;9.07;;;4.50;;
69188;SDS011;56302;52.322;5.926;2022-10-17T11:35:48;7.50;;;4.13;;
69188;SDS011;56302;52.322;5.926;2022-10-17T11:39:01;10.55;;;3.97;;
69188;SDS011;56302;52.322;5.926;2022-10-17T11:41:34;9.05;;;4.38;;
69188;SDS011;56302;52.322;5.926;2022-10-17T11:44:12;8.10;;;3.97;;
69188;SDS011;56302;52.322;5.926;2022-10-17T11:46:44;9.02;;;4.13;;
69188;SDS011;56302;52.322;5.926;2022-10-17T11:49:14;7.18;;;4.57;;
69188;SDS011;56302;52.322;5.926;2022-10-17T11:51:47;9.82;;;4.63;;
69188;SDS011;56302;52.322;5.926;2022-10-17T11:54:27;10.77;;;4.85;;
69188;SDS011;56302;52.322;5.926;2022-10-17T11:57:09;8.23;;;4.37;;
69188;SDS011;56302;52.322;5.926;2022-10-17T12:05:01;9.48;;;4.22;;
69188;SDS011;56302;52.322;5.926;2022-10-17T12:07:45;9.15;;;4.80;;
69188;SDS011;56302;52.322;5.926;2022-10-17T12:12:54;7.35;;;4.50;;
69188;SDS011;56302;52.322;5.926;2022-10-17T12:17:59;9.57;;;4.67;;
69188;SDS011;56302;52.322;5.926;2022-10-17T12:20:28;10.45;;;4.53;;
69188;SDS011;56302;52.322;5.926;2022-10-17T12:25:37;8.85;;;4.60;;
69188;SDS011;56302;52.322;5.926;2022-10-17T12:28:29;10.15;;;4.85;;
69188;SDS011;56302;52.322;5.926;2022-10-17T12:33:49;10.25;;;5.30;;
69188;SDS011;56302;52.322;5.926;2022-10-17T12:38:46;8.33;;;4.70;;
69188;SDS011;56302;52.322;5.926;2022-10-17T12:41:14;8.85;;;5.55;;
69188;SDS011;56302;52.322;5.926;2022-10-17T12:46:12;8.98;;;5.07;;
69188;SDS011;56302;52.322;5.926;2022-10-17T12:54:55;9.77;;;5.78;;
69188;SDS011;56302;52.322;5.926;2022-10-17T13:00:30;11.15;;;5.22;;
69188;SDS011;56302;52.322;5.926;2022-10-17T13:03:01;8.25;;;4.97;;
69188;SDS011;56302;52.322;5.926;2022-10-17T13:05:31;10.88;;;5.68;;
69188;SDS011;56302;52.322;5.926;2022-10-17T13:08:01;11.43;;;5.97;;
69188;SDS011;56302;52.322;5.926;2022-10-17T13:10:29;11.83;;;5.77;;
69188;SDS011;56302;52.322;5.926;2022-10-17T13:13:03;12.55;;;6.10;;
69188;SDS011;56302;52.322;5.926;2022-10-17T13:15:38;13.20;;;6.00;;
69188;SDS011;56302;52.322;5.926;2022-10-17T13:18:04;16.33;;;6.00;;
69188;SDS011;56302;52.322;5.926;2022-10-17T13:20:30;14.88;;;5.28;;
69188;SDS011;56302;52.322;5.926;2022-10-17T13:22:56;11.13;;;6.25;;
69188;SDS011;56302;52.322;5.926;2022-10-17T13:25:23;11.00;;;6.07;;
69188;SDS011;56302;52.322;5.926;2022-10-17T13:27:50;9.77;;;5.90;;
69188;SDS011;56302;52.322;5.926;2022-10-17T13:30:29;9.13;;;5.63;;
69188;SDS011;56302;52.322;5.926;2022-10-17T13:32:56;10.60;;;5.80;;
69188;SDS011;56302;52.322;5.926;2022-10-17T13:37:52;9.73;;;6.45;;
69188;SDS011;56302;52.322;5.926;2022-10-17T13:40:21;10.13;;;5.60;;
69188;SDS011;56302;52.322;5.926;2022-10-17T13:42:49;11.43;;;6.00;;
69188;SDS011;56302;52.322;5.926;2022-10-17T13:45:21;14.52;;;6.50;;
69188;SDS011;56302;52.322;5.926;2022-10-17T13:48:00;19.75;;;7.35;;
69188;SDS011;56302;52.322;5.926;2022-10-17T13:50:41;14.68;;;6.50;;
69188;SDS011;56302;52.322;5.926;2022-10-17T13:58:52;15.43;;;5.00;;
69188;SDS011;56302;52.322;5.926;2022-10-17T14:01:21;6.85;;;3.00;;
69188;SDS011;56302;52.322;5.926;2022-10-17T14:03:48;6.28;;;3.00;;
69188;SDS011;56302;52.322;5.926;2022-10-17T14:06:15;9.23;;;2.50;;
69188;SDS011;56302;52.322;5.926;2022-10-17T14:09:05;7.05;;;2.35;;
69188;SDS011;56302;52.322;5.926;2022-10-17T14:11:42;6.78;;;1.92;;
69188;SDS011;56302;52.322;5.926;2022-10-17T14:14:23;4.47;;;2.40;;
69188;SDS011;56302;52.322;5.926;2022-10-17T14:16:50;4.17;;;2.20;;
69188;SDS011;56302;52.322;5.926;2022-10-17T14:19:26;4.25;;;2.53;;
69188;SDS011;56302;52.322;5.926;2022-10-17T14:21:55;4.57;;;3.10;;
69188;SDS011;56302;52.322;5.926;2022-10-17T14:24:42;4.25;;;2.28;;
69188;SDS011;56302;52.322;5.926;2022-10-17T14:29:53;7.73;;;3.00;;
69188;SDS011;56302;52.322;5.926;2022-10-17T14:32:24;9.30;;;3.35;;
69188;SDS011;56302;52.322;5.926;2022-10-17T14:34:58;6.25;;;4.28;;
69188;SDS011;56302;52.322;5.926;2022-10-17T14:37:45;6.78;;;3.67;;
69188;SDS011;56302;52.322;5.926;2022-10-17T14:40:17;7.20;;;4.50;;
69188;SDS011;56302;52.322;5.926;2022-10-17T14:42:50;13.07;;;4.27;;
69188;SDS011;56302;52.322;5.926;2022-10-17T14:45:27;16.17;;;3.83;;
69188;SDS011;56302;52.322;5.926;2022-10-17T14:47:56;11.23;;;4.68;;
69188;SDS011;56302;52.322;5.926;2022-10-17T14:53:36;6.90;;;4.70;;
69188;SDS011;56302;52.322;5.926;2022-10-17T14:56:25;6.90;;;4.17;;
69188;SDS011;56302;52.322;5.926;2022-10-17T14:58:57;7.15;;;4.47;;
69188;SDS011;56302;52.322;5.926;2022-10-17T15:01:23;11.40;;;4.63;;
69188;SDS011;56302;52.322;5.926;2022-10-17T15:03:48;14.63;;;5.05;;
69188;SDS011;56302;52.322;5.926;2022-10-17T15:06:18;16.50;;;4.57;;
69188;SDS011;56302;52.322;5.926;2022-10-17T15:08:46;7.60;;;4.60;;
69188;SDS011;56302;52.322;5.926;2022-10-17T15:11:12;11.60;;;4.40;;
69188;SDS011;56302;52.322;5.926;2022-10-17T15:13:37;11.63;;;4.93;;
69188;SDS011;56302;52.322;5.926;2022-10-17T15:18:49;11.38;;;4.60;;
69188;SDS011;56302;52.322;5.926;2022-10-17T15:21:17;10.37;;;4.80;;
69188;SDS011;56302;52.322;5.926;2022-10-17T15:23:44;9.50;;;4.70;;
69188;SDS011;56302;52.322;5.926;2022-10-17T15:26:20;11.65;;;5.55;;
69188;SDS011;56302;52.322;5.926;2022-10-17T15:28:49;9.98;;;5.07;;
69188;SDS011;56302;52.322;5.926;2022-10-17T15:31:16;7.88;;;4.90;;
69188;SDS011;56302;52.322;5.926;2022-10-17T15:33:43;10.75;;;5.45;;
69188;SDS011;56302;52.322;5.926;2022-10-17T15:38:53;11.40;;;5.80;;
69188;SDS011;56302;52.322;5.926;2022-10-17T15:41:24;10.57;;;5.60;;
69188;SDS011;56302;52.322;5.926;2022-10-17T15:43:51;13.15;;;5.07;;
69188;SDS011;56302;52.322;5.926;2022-10-17T15:46:35;12.95;;;6.38;;
69188;SDS011;56302;52.322;5.926;2022-10-17T15:49:05;8.60;;;5.50;;
69188;SDS011;56302;52.322;5.926;2022-10-17T15:51:35;8.47;;;4.40;;
69188;SDS011;56302;52.322;5.926;2022-10-17T15:54:01;9.38;;;5.57;;
69188;SDS011;56302;52.322;5.926;2022-10-17T15:56:38;17.38;;;6.03;;
69188;SDS011;56302;52.322;5.926;2022-10-17T15:59:09;11.77;;;6.22;;
69188;SDS011;56302;52.322;5.926;2022-10-17T16:01:39;10.25;;;5.95;;
69188;SDS011;56302;52.322;5.926;2022-10-17T16:04:08;17.23;;;6.17;;
69188;SDS011;56302;52.322;5.926;2022-10-17T16:06:36;19.90;;;6.40;;
69188;SDS011;56302;52.322;5.926;2022-10-17T16:09:02;12.95;;;6.18;;
69188;SDS011;56302;52.322;5.926;2022-10-17T16:11:29;12.60;;;6.50;;
69188;SDS011;56302;52.322;5.926;2022-10-17T16:14:01;16.75;;;6.18;;
69188;SDS011;56302;52.322;5.926;2022-10-17T16:16:32;15.25;;;8.05;;
69188;SDS011;56302;52.322;5.926;2022-10-17T16:18:58;15.87;;;6.27;;
69188;SDS011;56302;52.322;5.926;2022-10-17T16:21:24;25.70;;;7.05;;
69188;SDS011;56302;52.322;5.926;2022-10-17T16:23:51;11.65;;;6.70;;
69188;SDS011;56302;52.322;5.926;2022-10-17T16:26:17;20.42;;;7.00;;
69188;SDS011;56302;52.322;5.926;2022-10-17T16:28:43;12.30;;;6.30;;
69188;SDS011;56302;52.322;5.926;2022-10-17T16:31:14;9.77;;;6.45;;
69188;SDS011;56302;52.322;5.926;2022-10-17T16:33:55;15.90;;;5.90;;
69188;SDS011;56302;52.322;5.926;2022-10-17T16:36:22;9.48;;;5.78;;
69188;SDS011;56302;52.322;5.926;2022-10-17T16:38:48;14.68;;;6.38;;
69188;SDS011;56302;52.322;5.926;2022-10-17T16:44:13;11.00;;;6.40;;
69188;SDS011;56302;52.322;5.926;2022-10-17T16:46:38;24.02;;;7.03;;
69188;SDS011;56302;52.322;5.926;2022-10-17T16:49:04;11.37;;;6.13;;
69188;SDS011;56302;52.322;5.926;2022-10-17T16:51:31;11.23;;;6.20;;
69188;SDS011;56302;52.322;5.926;2022-10-17T16:53:59;13.13;;;7.10;;